Minong, WI (54859)

5:11 PM CDT on August 27, 2015 (GMT -0500)
Lampson | | Change Station
CLOSE
Current Station
Personal Weather Station
Location: Trego, WI
Elevation: 1188 ft
Nearby Weather Stations

Elev 1188 ft 46.01 °N, 91.82 °W | Updated 12 seconds ago

Overcast
Overcast
73.2 °F
Feels Like 75 °F
N
0.0
Wind Variable Wind from South
Gusts 2.2 mph

Today
High -- | Low -- °F
--% Chance of Precip.
Yesterday
High -- | Low -- °F
Precip. -- in
6:21 AM 7:55 PM
Waxing Gibbous, 95% visible
Pressure 30.06 in
Visibility 10.0 miles
Clouds Overcast 7000 ft
Heat Index 75 °F
Dew Point 63 °F
Humidity 71%
Rainfall 0.00 in
Snow Depth Not available.
UV 1 out of 12
Pollen 9.40 out of 12
Air Quality Not available.
Flu Activity Not available.
METAR KHYR 272153Z AUTO 19009KT 10SM OVC070 22/14 A3005 RMK AO2 SLP180 T02170139
Pressure 30.06 in
Visibility 10.0 miles
Clouds Overcast 7000 ft
Heat Index 75 °F
Dew Point 63 °F
Humidity 71%
Rainfall 0.00 in
Snow Depth Not available.
UV 1 out of 12
Pollen 9.40 out of 12
Air Quality Not available.
Flu Activity Not available.
METAR KHYR 272153Z AUTO 19009KT 10SM OVC070 22/14 A3005 RMK AO2 SLP180 T02170139

10-Day Weather Forecast

×

Almanac

Astronomy

Aug. 27, 2015 Rise Set
Actual Time
Civil Twilight
Nautical Twilight
Astronomical Twilight
Moon
Length of Visible Light
Length of Day
Tomorrow will be .
, % of the Moon is Illuminated

Today's Extremes

State Highs State Lows

Community

WunderPhotos

Upload Photos

1,850,250 photos uploaded!

WunderBlogs® & News

Nearby

Air Quality

  Air Quality AQ Index Pollutant
Not available.

Snow Depth

Station Depth Elevation

Earthquake Activity

City Distance Mag. Time & Date
Minimum magnitude displayed is 2.5.

Coastal Water Temperatures

Place Temperature

Stations

Nearby Weather Stations

Station Location Temp. Windchill Dew Point Humidity Wind Precip. Elev Updated Type